CheckWX is a tool to help pilots better visualize weather data.  It is not intended as a substitute for an official pre-flight weather briefing.

05:10:21 UTC

KTVF METAR
Thief River Falls Regional Airport
Thief River Falls, Minnesota, USA
Current

14 mins ago

KTVF 140456Z AUTO 33015KT 9SM -SN FEW019 OVC025 M14/M17 A2994 RMK AO2 SLP165 P0000 T11441167 410721144 FZRANO
Observed
Dec-14 @ 04:56 UTC
Wind
  • 330° at 15 KTS
Visibility
9 SM
Flight Rules
MVFR
Conditions
Light Snow
Cloud Levels
  • Few at 1,900' AGL
  • Overcast at 2,500' AGL
Temperature
-14°C / 7°F
Dewpoint
-17°C / 1°F
Humidity
78%
Altimeter
29.94" Hg
Pressure
1013.92 hPa
Current Rain
0.01"
Previous

1 hour ago

KTVF 140408Z AUTO 33016KT 9SM -SN BKN015 BKN025 M14/M16 A2993 RMK AO2 P0000 FZRANO
Observed
Dec-14 @ 04:08 UTC
Wind
  • 330° at 16 KTS
Visibility
9 SM
Flight Rules
MVFR
Conditions
Light Snow
Cloud Levels
  • Broken at 1,500' AGL
  • Broken at 2,500' AGL
Temperature
-14°C / 7°F
Dewpoint
-16°C / 3°F
Humidity
85%
Altimeter
29.93" Hg
Pressure
1013.52 hPa
Current Rain
0.01"
Previous

1 hour ago

KTVF 140356Z AUTO 33015KT 9SM -SN FEW025 SCT080 M14/M16 A2993 RMK AO2 SLP164 P0000 T11391161 FZRANO
Observed
Dec-14 @ 03:56 UTC
Wind
  • 330° at 15 KTS
Visibility
9 SM
Flight Rules
VFR
Conditions
Light Snow
Cloud Levels
  • Few at 2,500' AGL
  • Scattered at 8,000' AGL
Temperature
-14°C / 7°F
Dewpoint
-16°C / 3°F
Humidity
85%
Altimeter
29.93" Hg
Pressure
1013.52 hPa
Current Rain
0.01"